sensor_id;sensor_type;location;lat;lon;timestamp;P1;durP1;ratioP1;P2;durP2;ratioP2
24157;SDS011;12316;50.904;4.200;2024-03-08T00:00:55;27.33;;;16.80;;
24157;SDS011;12316;50.904;4.200;2024-03-08T00:03:21;25.50;;;16.35;;
24157;SDS011;12316;50.904;4.200;2024-03-08T00:05:47;26.38;;;16.75;;
24157;SDS011;12316;50.904;4.200;2024-03-08T00:08:13;27.08;;;16.35;;
24157;SDS011;12316;50.904;4.200;2024-03-08T00:10:38;24.38;;;15.95;;
24157;SDS011;12316;50.904;4.200;2024-03-08T00:13:04;25.50;;;15.93;;
24157;SDS011;12316;50.904;4.200;2024-03-08T00:15:30;27.92;;;16.67;;
24157;SDS011;12316;50.904;4.200;2024-03-08T00:17:58;26.73;;;16.33;;
24157;SDS011;12316;50.904;4.200;2024-03-08T00:20:24;24.77;;;15.63;;
24157;SDS011;12316;50.904;4.200;2024-03-08T00:22:49;29.98;;;16.33;;
24157;SDS011;12316;50.904;4.200;2024-03-08T00:25:16;28.98;;;16.10;;
24157;SDS011;12316;50.904;4.200;2024-03-08T00:27:42;27.65;;;16.75;;
24157;SDS011;12316;50.904;4.200;2024-03-08T00:30:08;26.08;;;16.38;;
24157;SDS011;12316;50.904;4.200;2024-03-08T00:32:34;27.83;;;16.45;;
24157;SDS011;12316;50.904;4.200;2024-03-08T00:35:01;26.45;;;15.25;;
24157;SDS011;12316;50.904;4.200;2024-03-08T00:37:26;25.42;;;15.98;;
24157;SDS011;12316;50.904;4.200;2024-03-08T00:39:52;27.42;;;15.43;;
24157;SDS011;12316;50.904;4.200;2024-03-08T00:42:19;27.25;;;16.02;;
24157;SDS011;12316;50.904;4.200;2024-03-08T00:44:45;26.75;;;16.92;;
24157;SDS011;12316;50.904;4.200;2024-03-08T00:47:13;29.08;;;16.65;;
24157;SDS011;12316;50.904;4.200;2024-03-08T00:49:40;28.58;;;16.90;;
24157;SDS011;12316;50.904;4.200;2024-03-08T00:52:06;30.40;;;17.65;;
24157;SDS011;12316;50.904;4.200;2024-03-08T00:54:33;28.90;;;17.10;;
24157;SDS011;12316;50.904;4.200;2024-03-08T00:56:59;30.90;;;17.48;;
24157;SDS011;12316;50.904;4.200;2024-03-08T00:59:28;31.27;;;17.75;;
24157;SDS011;12316;50.904;4.200;2024-03-08T01:01:59;31.48;;;17.98;;
24157;SDS011;12316;50.904;4.200;2024-03-08T01:04:26;32.13;;;18.45;;
24157;SDS011;12316;50.904;4.200;2024-03-08T01:06:56;32.05;;;17.95;;
24157;SDS011;12316;50.904;4.200;2024-03-08T01:09:23;34.95;;;18.73;;
24157;SDS011;12316;50.904;4.200;2024-03-08T01:11:49;31.48;;;17.63;;
24157;SDS011;12316;50.904;4.200;2024-03-08T01:14:15;31.52;;;17.48;;
24157;SDS011;12316;50.904;4.200;2024-03-08T01:16:41;33.00;;;18.05;;
24157;SDS011;12316;50.904;4.200;2024-03-08T01:19:07;31.60;;;17.83;;
24157;SDS011;12316;50.904;4.200;2024-03-08T01:21:32;29.98;;;17.58;;
24157;SDS011;12316;50.904;4.200;2024-03-08T01:23:58;30.52;;;19.08;;
24157;SDS011;12316;50.904;4.200;2024-03-08T01:26:24;31.40;;;18.17;;
24157;SDS011;12316;50.904;4.200;2024-03-08T01:28:49;32.22;;;18.80;;
24157;SDS011;12316;50.904;4.200;2024-03-08T01:31:15;31.70;;;19.40;;
24157;SDS011;12316;50.904;4.200;2024-03-08T01:33:41;33.38;;;18.60;;
24157;SDS011;12316;50.904;4.200;2024-03-08T01:36:07;28.63;;;18.58;;
24157;SDS011;12316;50.904;4.200;2024-03-08T01:38:33;30.95;;;19.02;;
24157;SDS011;12316;50.904;4.200;2024-03-08T01:40:59;34.80;;;18.55;;
24157;SDS011;12316;50.904;4.200;2024-03-08T01:43:25;32.20;;;18.83;;
24157;SDS011;12316;50.904;4.200;2024-03-08T01:45:53;34.33;;;19.65;;
24157;SDS011;12316;50.904;4.200;2024-03-08T01:48:26;34.92;;;19.75;;
24157;SDS011;12316;50.904;4.200;2024-03-08T01:50:54;33.22;;;20.02;;
24157;SDS011;12316;50.904;4.200;2024-03-08T01:53:22;35.70;;;19.65;;
24157;SDS011;12316;50.904;4.200;2024-03-08T01:55:51;32.97;;;19.35;;
24157;SDS011;12316;50.904;4.200;2024-03-08T01:58:19;30.90;;;19.20;;
24157;SDS011;12316;50.904;4.200;2024-03-08T02:00:47;30.42;;;20.00;;
24157;SDS011;12316;50.904;4.200;2024-03-08T02:03:15;32.33;;;19.63;;
24157;SDS011;12316;50.904;4.200;2024-03-08T02:05:41;32.67;;;19.52;;
24157;SDS011;12316;50.904;4.200;2024-03-08T02:08:07;33.08;;;20.35;;
24157;SDS011;12316;50.904;4.200;2024-03-08T02:10:38;31.50;;;20.00;;
24157;SDS011;12316;50.904;4.200;2024-03-08T02:13:04;37.63;;;22.38;;
24157;SDS011;12316;50.904;4.200;2024-03-08T02:18:18;32.15;;;20.05;;
24157;SDS011;12316;50.904;4.200;2024-03-08T02:20:53;32.80;;;20.20;;
24157;SDS011;12316;50.904;4.200;2024-03-08T02:23:20;30.75;;;20.20;;
24157;SDS011;12316;50.904;4.200;2024-03-08T02:25:46;35.65;;;20.70;;
24157;SDS011;12316;50.904;4.200;2024-03-08T02:28:12;34.05;;;20.83;;
24157;SDS011;12316;50.904;4.200;2024-03-08T02:30:39;33.47;;;20.13;;
24157;SDS011;12316;50.904;4.200;2024-03-08T02:33:05;32.72;;;20.38;;
24157;SDS011;12316;50.904;4.200;2024-03-08T02:35:32;35.47;;;21.05;;
24157;SDS011;12316;50.904;4.200;2024-03-08T02:37:59;33.75;;;20.30;;
24157;SDS011;12316;50.904;4.200;2024-03-08T02:40:25;33.63;;;20.52;;
24157;SDS011;12316;50.904;4.200;2024-03-08T02:42:51;35.22;;;20.83;;
24157;SDS011;12316;50.904;4.200;2024-03-08T02:45:16;34.20;;;21.40;;
24157;SDS011;12316;50.904;4.200;2024-03-08T02:47:42;31.88;;;21.42;;
24157;SDS011;12316;50.904;4.200;2024-03-08T02:50:08;33.83;;;21.55;;
24157;SDS011;12316;50.904;4.200;2024-03-08T02:52:34;35.22;;;21.02;;
24157;SDS011;12316;50.904;4.200;2024-03-08T02:55:00;34.35;;;22.25;;
24157;SDS011;12316;50.904;4.200;2024-03-08T02:57:31;32.35;;;21.33;;
24157;SDS011;12316;50.904;4.200;2024-03-08T02:59:57;31.85;;;21.10;;
24157;SDS011;12316;50.904;4.200;2024-03-08T03:02:24;35.22;;;21.45;;
24157;SDS011;12316;50.904;4.200;2024-03-08T03:04:51;32.75;;;21.30;;
24157;SDS011;12316;50.904;4.200;2024-03-08T03:07:17;30.45;;;21.80;;
24157;SDS011;12316;50.904;4.200;2024-03-08T03:09:43;33.20;;;21.55;;
24157;SDS011;12316;50.904;4.200;2024-03-08T03:12:10;34.25;;;22.48;;
24157;SDS011;12316;50.904;4.200;2024-03-08T03:14:35;34.42;;;22.25;;
24157;SDS011;12316;50.904;4.200;2024-03-08T03:17:03;33.60;;;21.40;;
24157;SDS011;12316;50.904;4.200;2024-03-08T03:19:29;34.90;;;22.13;;
24157;SDS011;12316;50.904;4.200;2024-03-08T03:21:55;33.03;;;21.95;;
24157;SDS011;12316;50.904;4.200;2024-03-08T03:24:22;34.45;;;22.15;;
24157;SDS011;12316;50.904;4.200;2024-03-08T03:26:48;35.30;;;23.05;;
24157;SDS011;12316;50.904;4.200;2024-03-08T03:29:14;32.40;;;22.83;;
24157;SDS011;12316;50.904;4.200;2024-03-08T03:31:41;34.88;;;22.65;;
24157;SDS011;12316;50.904;4.200;2024-03-08T03:34:07;33.58;;;22.25;;
24157;SDS011;12316;50.904;4.200;2024-03-08T03:36:33;38.50;;;23.40;;
24157;SDS011;12316;50.904;4.200;2024-03-08T03:39:00;33.97;;;22.38;;
24157;SDS011;12316;50.904;4.200;2024-03-08T03:41:35;33.85;;;22.90;;
24157;SDS011;12316;50.904;4.200;2024-03-08T03:44:02;32.10;;;22.73;;
24157;SDS011;12316;50.904;4.200;2024-03-08T03:46:28;35.72;;;23.35;;
24157;SDS011;12316;50.904;4.200;2024-03-08T03:48:54;35.88;;;22.90;;
24157;SDS011;12316;50.904;4.200;2024-03-08T03:51:20;36.10;;;22.85;;
24157;SDS011;12316;50.904;4.200;2024-03-08T03:53:46;36.70;;;24.00;;
24157;SDS011;12316;50.904;4.200;2024-03-08T03:56:12;32.80;;;23.58;;
24157;SDS011;12316;50.904;4.200;2024-03-08T03:58:37;36.75;;;23.60;;
24157;SDS011;12316;50.904;4.200;2024-03-08T04:01:05;40.63;;;23.60;;
24157;SDS011;12316;50.904;4.200;2024-03-08T04:03:30;36.80;;;24.33;;
24157;SDS011;12316;50.904;4.200;2024-03-08T04:05:56;33.17;;;23.58;;
24157;SDS011;12316;50.904;4.200;2024-03-08T04:08:22;35.50;;;23.23;;
24157;SDS011;12316;50.904;4.200;2024-03-08T04:10:51;35.30;;;23.30;;
24157;SDS011;12316;50.904;4.200;2024-03-08T04:13:17;37.10;;;23.95;;
24157;SDS011;12316;50.904;4.200;2024-03-08T04:15:42;33.90;;;23.38;;
24157;SDS011;12316;50.904;4.200;2024-03-08T04:18:13;36.08;;;24.02;;
24157;SDS011;12316;50.904;4.200;2024-03-08T04:20:39;38.53;;;24.17;;
24157;SDS011;12316;50.904;4.200;2024-03-08T04:23:05;35.25;;;23.85;;
24157;SDS011;12316;50.904;4.200;2024-03-08T04:25:31;33.75;;;22.88;;
24157;SDS011;12316;50.904;4.200;2024-03-08T04:27:57;35.80;;;23.30;;
24157;SDS011;12316;50.904;4.200;2024-03-08T04:30:23;34.53;;;24.10;;
24157;SDS011;12316;50.904;4.200;2024-03-08T04:32:49;37.22;;;23.83;;
24157;SDS011;12316;50.904;4.200;2024-03-08T04:35:15;34.15;;;23.42;;
24157;SDS011;12316;50.904;4.200;2024-03-08T04:37:41;36.13;;;24.05;;
24157;SDS011;12316;50.904;4.200;2024-03-08T04:40:06;39.53;;;24.38;;
24157;SDS011;12316;50.904;4.200;2024-03-08T04:42:32;36.13;;;23.75;;
24157;SDS011;12316;50.904;4.200;2024-03-08T04:44:59;34.63;;;23.73;;
24157;SDS011;12316;50.904;4.200;2024-03-08T04:47:25;36.10;;;24.50;;
24157;SDS011;12316;50.904;4.200;2024-03-08T04:49:51;31.70;;;23.02;;
24157;SDS011;12316;50.904;4.200;2024-03-08T04:52:17;34.58;;;23.85;;
24157;SDS011;12316;50.904;4.200;2024-03-08T04:54:43;33.83;;;23.45;;
24157;SDS011;12316;50.904;4.200;2024-03-08T04:57:09;36.55;;;24.83;;
24157;SDS011;12316;50.904;4.200;2024-03-08T04:59:36;36.88;;;23.08;;
24157;SDS011;12316;50.904;4.200;2024-03-08T05:02:02;39.15;;;24.23;;
24157;SDS011;12316;50.904;4.200;2024-03-08T05:04:28;35.42;;;23.30;;
24157;SDS011;12316;50.904;4.200;2024-03-08T05:06:54;35.40;;;23.63;;
24157;SDS011;12316;50.904;4.200;2024-03-08T05:09:20;36.00;;;23.70;;
24157;SDS011;12316;50.904;4.200;2024-03-08T05:11:46;37.20;;;24.10;;
24157;SDS011;12316;50.904;4.200;2024-03-08T05:14:13;36.97;;;24.13;;
24157;SDS011;12316;50.904;4.200;2024-03-08T05:19:13;36.42;;;23.40;;
24157;SDS011;12316;50.904;4.200;2024-03-08T05:21:51;39.38;;;23.98;;
24157;SDS011;12316;50.904;4.200;2024-03-08T05:24:17;35.90;;;23.15;;
24157;SDS011;12316;50.904;4.200;2024-03-08T05:26:43;37.45;;;23.83;;
24157;SDS011;12316;50.904;4.200;2024-03-08T05:29:09;35.42;;;24.17;;
24157;SDS011;12316;50.904;4.200;2024-03-08T05:31:43;36.25;;;24.13;;
24157;SDS011;12316;50.904;4.200;2024-03-08T05:34:12;37.08;;;23.45;;
24157;SDS011;12316;50.904;4.200;2024-03-08T05:36:39;36.03;;;24.02;;
24157;SDS011;12316;50.904;4.200;2024-03-08T05:39:05;36.05;;;24.13;;
24157;SDS011;12316;50.904;4.200;2024-03-08T05:41:32;38.53;;;24.05;;
24157;SDS011;12316;50.904;4.200;2024-03-08T05:43:57;35.70;;;24.42;;
24157;SDS011;12316;50.904;4.200;2024-03-08T05:46:23;36.67;;;23.70;;
24157;SDS011;12316;50.904;4.200;2024-03-08T05:48:49;35.65;;;23.42;;
24157;SDS011;12316;50.904;4.200;2024-03-08T05:51:15;37.13;;;23.75;;
24157;SDS011;12316;50.904;4.200;2024-03-08T05:53:40;36.90;;;24.00;;
24157;SDS011;12316;50.904;4.200;2024-03-08T05:56:06;37.17;;;24.17;;
24157;SDS011;12316;50.904;4.200;2024-03-08T05:58:32;35.72;;;23.05;;
24157;SDS011;12316;50.904;4.200;2024-03-08T06:00:57;37.67;;;24.40;;
24157;SDS011;12316;50.904;4.200;2024-03-08T06:03:24;37.25;;;24.65;;
24157;SDS011;12316;50.904;4.200;2024-03-08T06:05:50;38.15;;;24.98;;
24157;SDS011;12316;50.904;4.200;2024-03-08T06:08:16;35.75;;;24.13;;
24157;SDS011;12316;50.904;4.200;2024-03-08T06:10:41;37.10;;;23.95;;
24157;SDS011;12316;50.904;4.200;2024-03-08T06:13:07;37.97;;;23.65;;
24157;SDS011;12316;50.904;4.200;2024-03-08T06:15:33;35.60;;;23.73;;
24157;SDS011;12316;50.904;4.200;2024-03-08T06:17:59;36.97;;;24.17;;
24157;SDS011;12316;50.904;4.200;2024-03-08T06:20:25;36.15;;;24.13;;
24157;SDS011;12316;50.904;4.200;2024-03-08T06:22:51;36.38;;;23.60;;
24157;SDS011;12316;50.904;4.200;2024-03-08T06:25:18;36.28;;;23.50;;
24157;SDS011;12316;50.904;4.200;2024-03-08T06:27:44;35.92;;;22.75;;
24157;SDS011;12316;50.904;4.200;2024-03-08T06:30:12;34.67;;;23.38;;
24157;SDS011;12316;50.904;4.200;2024-03-08T06:32:38;37.72;;;23.80;;
24157;SDS011;12316;50.904;4.200;2024-03-08T06:35:04;38.47;;;24.00;;
24157;SDS011;12316;50.904;4.200;2024-03-08T06:37:34;39.92;;;23.98;;
24157;SDS011;12316;50.904;4.200;2024-03-08T06:40:00;38.00;;;24.27;;
24157;SDS011;12316;50.904;4.200;2024-03-08T06:42:26;36.65;;;23.77;;
24157;SDS011;12316;50.904;4.200;2024-03-08T06:44:53;40.83;;;25.00;;
24157;SDS011;12316;50.904;4.200;2024-03-08T06:47:21;35.97;;;23.83;;
24157;SDS011;12316;50.904;4.200;2024-03-08T06:49:47;40.25;;;23.30;;
24157;SDS011;12316;50.904;4.200;2024-03-08T06:52:14;37.13;;;24.10;;
24157;SDS011;12316;50.904;4.200;2024-03-08T06:54:40;38.00;;;24.17;;
24157;SDS011;12316;50.904;4.200;2024-03-08T06:57:05;39.90;;;23.75;;
24157;SDS011;12316;50.904;4.200;2024-03-08T06:59:31;38.30;;;23.77;;
24157;SDS011;12316;50.904;4.200;2024-03-08T07:01:57;35.03;;;23.92;;
24157;SDS011;12316;50.904;4.200;2024-03-08T07:04:24;38.08;;;24.02;;
24157;SDS011;12316;50.904;4.200;2024-03-08T07:06:54;39.50;;;23.70;;
24157;SDS011;12316;50.904;4.200;2024-03-08T07:09:23;40.70;;;24.10;;
24157;SDS011;12316;50.904;4.200;2024-03-08T07:11:49;38.17;;;23.30;;
24157;SDS011;12316;50.904;4.200;2024-03-08T07:14:21;38.38;;;23.65;;
24157;SDS011;12316;50.904;4.200;2024-03-08T07:16:47;39.72;;;23.92;;
24157;SDS011;12316;50.904;4.200;2024-03-08T07:19:13;36.58;;;23.98;;
24157;SDS011;12316;50.904;4.200;2024-03-08T07:21:41;36.63;;;23.20;;
24157;SDS011;12316;50.904;4.200;2024-03-08T07:24:08;35.28;;;22.85;;
24157;SDS011;12316;50.904;4.200;2024-03-08T07:26:49;26.42;;;16.88;;
24157;SDS011;12316;50.904;4.200;2024-03-08T07:29:17;33.22;;;22.90;;
24157;SDS011;12316;50.904;4.200;2024-03-08T07:31:42;38.25;;;23.38;;
24157;SDS011;12316;50.904;4.200;2024-03-08T07:34:26;35.22;;;22.83;;
24157;SDS011;12316;50.904;4.200;2024-03-08T07:36:52;37.30;;;23.02;;
24157;SDS011;12316;50.904;4.200;2024-03-08T07:39:18;36.80;;;22.88;;
24157;SDS011;12316;50.904;4.200;2024-03-08T07:41:45;37.00;;;23.10;;
24157;SDS011;12316;50.904;4.200;2024-03-08T07:44:10;36.53;;;22.73;;
24157;SDS011;12316;50.904;4.200;2024-03-08T07:46:56;36.22;;;23.17;;
24157;SDS011;12316;50.904;4.200;2024-03-08T07:49:22;36.28;;;23.40;;
24157;SDS011;12316;50.904;4.200;2024-03-08T07:51:47;34.38;;;22.83;;
24157;SDS011;12316;50.904;4.200;2024-03-08T07:54:14;35.70;;;22.75;;
24157;SDS011;12316;50.904;4.200;2024-03-08T07:56:40;35.33;;;22.42;;
24157;SDS011;12316;50.904;4.200;2024-03-08T07:59:06;33.67;;;22.05;;
24157;SDS011;12316;50.904;4.200;2024-03-08T08:01:31;35.78;;;22.40;;
24157;SDS011;12316;50.904;4.200;2024-03-08T08:03:58;35.58;;;22.60;;
24157;SDS011;12316;50.904;4.200;2024-03-08T08:06:26;31.92;;;21.80;;
24157;SDS011;12316;50.904;4.200;2024-03-08T08:08:52;36.60;;;22.63;;
24157;SDS011;12316;50.904;4.200;2024-03-08T08:11:18;34.10;;;22.35;;
24157;SDS011;12316;50.904;4.200;2024-03-08T08:13:45;32.90;;;21.38;;
24157;SDS011;12316;50.904;4.200;2024-03-08T08:16:11;34.25;;;22.45;;
24157;SDS011;12316;50.904;4.200;2024-03-08T08:18:38;34.50;;;22.55;;
24157;SDS011;12316;50.904;4.200;2024-03-08T08:21:04;35.63;;;22.10;;
24157;SDS011;12316;50.904;4.200;2024-03-08T08:23:31;32.70;;;21.48;;
24157;SDS011;12316;50.904;4.200;2024-03-08T08:25:57;33.40;;;21.55;;
24157;SDS011;12316;50.904;4.200;2024-03-08T08:28:23;31.70;;;21.27;;
24157;SDS011;12316;50.904;4.200;2024-03-08T08:30:49;34.88;;;22.23;;
24157;SDS011;12316;50.904;4.200;2024-03-08T08:33:15;33.17;;;21.90;;
24157;SDS011;12316;50.904;4.200;2024-03-08T08:35:41;30.13;;;21.08;;
24157;SDS011;12316;50.904;4.200;2024-03-08T08:38:07;32.35;;;20.83;;
24157;SDS011;12316;50.904;4.200;2024-03-08T08:40:33;34.22;;;21.90;;
24157;SDS011;12316;50.904;4.200;2024-03-08T08:43:01;32.45;;;20.52;;
24157;SDS011;12316;50.904;4.200;2024-03-08T08:45:29;35.03;;;21.50;;
24157;SDS011;12316;50.904;4.200;2024-03-08T08:47:55;32.00;;;21.35;;
24157;SDS011;12316;50.904;4.200;2024-03-08T08:50:21;31.50;;;20.52;;
24157;SDS011;12316;50.904;4.200;2024-03-08T08:52:51;31.98;;;20.77;;
24157;SDS011;12316;50.904;4.200;2024-03-08T08:55:19;32.50;;;21.25;;
24157;SDS011;12316;50.904;4.200;2024-03-08T08:57:46;29.55;;;19.92;;
24157;SDS011;12316;50.904;4.200;2024-03-08T09:00:17;30.08;;;20.55;;
24157;SDS011;12316;50.904;4.200;2024-03-08T09:02:45;30.58;;;19.70;;
24157;SDS011;12316;50.904;4.200;2024-03-08T09:05:10;33.60;;;20.80;;
24157;SDS011;12316;50.904;4.200;2024-03-08T09:07:36;32.83;;;20.58;;
24157;SDS011;12316;50.904;4.200;2024-03-08T09:10:02;28.88;;;19.90;;
24157;SDS011;12316;50.904;4.200;2024-03-08T09:12:29;34.00;;;20.48;;
24157;SDS011;12316;50.904;4.200;2024-03-08T09:14:54;30.83;;;19.77;;
24157;SDS011;12316;50.904;4.200;2024-03-08T09:17:20;30.15;;;19.77;;
24157;SDS011;12316;50.904;4.200;2024-03-08T09:19:49;29.65;;;19.55;;
24157;SDS011;12316;50.904;4.200;2024-03-08T09:22:16;29.20;;;19.58;;
24157;SDS011;12316;50.904;4.200;2024-03-08T09:24:41;28.10;;;18.52;;
24157;SDS011;12316;50.904;4.200;2024-03-08T09:27:10;28.48;;;19.33;;
24157;SDS011;12316;50.904;4.200;2024-03-08T09:29:36;25.88;;;18.15;;
24157;SDS011;12316;50.904;4.200;2024-03-08T09:32:03;28.00;;;18.15;;
24157;SDS011;12316;50.904;4.200;2024-03-08T09:34:29;27.90;;;18.35;;
24157;SDS011;12316;50.904;4.200;2024-03-08T09:36:55;27.80;;;18.60;;
24157;SDS011;12316;50.904;4.200;2024-03-08T09:39:21;26.92;;;18.60;;
24157;SDS011;12316;50.904;4.200;2024-03-08T09:41:47;27.95;;;17.83;;
24157;SDS011;12316;50.904;4.200;2024-03-08T09:44:15;31.05;;;18.90;;
24157;SDS011;12316;50.904;4.200;2024-03-08T09:46:44;26.58;;;17.55;;
24157;SDS011;12316;50.904;4.200;2024-03-08T09:49:12;26.55;;;17.33;;
24157;SDS011;12316;50.904;4.200;2024-03-08T09:51:38;23.98;;;17.15;;
24157;SDS011;12316;50.904;4.200;2024-03-08T09:54:07;25.77;;;16.52;;
24157;SDS011;12316;50.904;4.200;2024-03-08T09:56:33;24.90;;;16.90;;
24157;SDS011;12316;50.904;4.200;2024-03-08T09:59:00;24.70;;;16.63;;
24157;SDS011;12316;50.904;4.200;2024-03-08T10:02:04;25.38;;;17.13;;
24157;SDS011;12316;50.904;4.200;2024-03-08T10:04:30;29.38;;;17.42;;
24157;SDS011;12316;50.904;4.200;2024-03-08T10:07:00;25.08;;;16.88;;
24157;SDS011;12316;50.904;4.200;2024-03-08T10:09:26;25.30;;;17.13;;
24157;SDS011;12316;50.904;4.200;2024-03-08T10:11:56;27.58;;;17.33;;
24157;SDS011;12316;50.904;4.200;2024-03-08T10:14:23;28.85;;;16.60;;
24157;SDS011;12316;50.904;4.200;2024-03-08T10:16:51;26.98;;;17.00;;
24157;SDS011;12316;50.904;4.200;2024-03-08T10:19:17;25.20;;;17.00;;
24157;SDS011;12316;50.904;4.200;2024-03-08T10:21:52;26.42;;;17.42;;
24157;SDS011;12316;50.904;4.200;2024-03-08T10:24:24;25.02;;;16.65;;
24157;SDS011;12316;50.904;4.200;2024-03-08T10:26:58;25.40;;;16.75;;
24157;SDS011;12316;50.904;4.200;2024-03-08T10:29:25;24.27;;;16.38;;
24157;SDS011;12316;50.904;4.200;2024-03-08T10:31:51;23.92;;;16.58;;
24157;SDS011;12316;50.904;4.200;2024-03-08T10:34:16;22.67;;;16.08;;
24157;SDS011;12316;50.904;4.200;2024-03-08T10:36:42;24.58;;;16.80;;
24157;SDS011;12316;50.904;4.200;2024-03-08T10:39:22;25.73;;;17.17;;
24157;SDS011;12316;50.904;4.200;2024-03-08T10:41:53;25.15;;;17.23;;
24157;SDS011;12316;50.904;4.200;2024-03-08T10:49:38;24.75;;;16.30;;
24157;SDS011;12316;50.904;4.200;2024-03-08T10:52:09;22.83;;;16.42;;
24157;SDS011;12316;50.904;4.200;2024-03-08T10:54:37;25.30;;;16.85;;
24157;SDS011;12316;50.904;4.200;2024-03-08T10:57:05;23.63;;;16.77;;
24157;SDS011;12316;50.904;4.200;2024-03-08T10:59:33;24.20;;;17.30;;
24157;SDS011;12316;50.904;4.200;2024-03-08T11:02:00;23.23;;;16.25;;
24157;SDS011;12316;50.904;4.200;2024-03-08T11:04:26;22.73;;;16.20;;
24157;SDS011;12316;50.904;4.200;2024-03-08T11:06:54;23.13;;;16.10;;
24157;SDS011;12316;50.904;4.200;2024-03-08T11:09:33;23.60;;;16.58;;
24157;SDS011;12316;50.904;4.200;2024-03-08T11:14:47;22.40;;;16.17;;
24157;SDS011;12316;50.904;4.200;2024-03-08T11:17:59;23.40;;;15.98;;
24157;SDS011;12316;50.904;4.200;2024-03-08T11:20:02;24.42;;;16.98;;
24157;SDS011;12316;50.904;4.200;2024-03-08T11:25:33;24.88;;;16.52;;
24157;SDS011;12316;50.904;4.200;2024-03-08T11:31:25;21.50;;;16.00;;
24157;SDS011;12316;50.904;4.200;2024-03-08T11:33:35;21.80;;;16.23;;
24157;SDS011;12316;50.904;4.200;2024-03-08T11:38:44;22.80;;;15.80;;
24157;SDS011;12316;50.904;4.200;2024-03-08T11:41:14;19.90;;;15.10;;
24157;SDS011;12316;50.904;4.200;2024-03-08T11:43:40;23.50;;;16.15;;
24157;SDS011;12316;50.904;4.200;2024-03-08T11:46:12;22.13;;;15.38;;
24157;SDS011;12316;50.904;4.200;2024-03-08T11:48:42;22.27;;;15.50;;
24157;SDS011;12316;50.904;4.200;2024-03-08T11:51:12;21.05;;;15.40;;
24157;SDS011;12316;50.904;4.200;2024-03-08T11:53:39;22.58;;;16.08;;
24157;SDS011;12316;50.904;4.200;2024-03-08T11:56:08;22.83;;;15.73;;
24157;SDS011;12316;50.904;4.200;2024-03-08T11:58:36;23.13;;;16.33;;
24157;SDS011;12316;50.904;4.200;2024-03-08T12:01:06;22.45;;;15.35;;
24157;SDS011;12316;50.904;4.200;2024-03-08T12:03:42;22.40;;;15.75;;
24157;SDS011;12316;50.904;4.200;2024-03-08T12:06:08;23.10;;;15.52;;
24157;SDS011;12316;50.904;4.200;2024-03-08T12:08:37;22.13;;;15.43;;
24157;SDS011;12316;50.904;4.200;2024-03-08T12:11:06;22.05;;;15.43;;
24157;SDS011;12316;50.904;4.200;2024-03-08T12:13:33;21.88;;;15.55;;
24157;SDS011;12316;50.904;4.200;2024-03-08T12:16:03;21.33;;;15.07;;
24157;SDS011;12316;50.904;4.200;2024-03-08T12:18:32;19.05;;;15.05;;
24157;SDS011;12316;50.904;4.200;2024-03-08T12:21:12;22.80;;;16.10;;
24157;SDS011;12316;50.904;4.200;2024-03-08T12:23:46;22.48;;;14.25;;
24157;SDS011;12316;50.904;4.200;2024-03-08T12:26:23;22.90;;;15.43;;
24157;SDS011;12316;50.904;4.200;2024-03-08T12:28:51;21.17;;;14.95;;
24157;SDS011;12316;50.904;4.200;2024-03-08T12:31:17;21.85;;;15.73;;
24157;SDS011;12316;50.904;4.200;2024-03-08T12:33:51;23.08;;;15.32;;
24157;SDS011;12316;50.904;4.200;2024-03-08T12:36:19;21.10;;;15.52;;
24157;SDS011;12316;50.904;4.200;2024-03-08T12:38:48;20.90;;;15.02;;
24157;SDS011;12316;50.904;4.200;2024-03-08T12:41:14;23.17;;;14.52;;
24157;SDS011;12316;50.904;4.200;2024-03-08T12:43:42;20.45;;;14.65;;
24157;SDS011;12316;50.904;4.200;2024-03-08T12:46:12;19.45;;;14.45;;
24157;SDS011;12316;50.904;4.200;2024-03-08T12:48:38;22.83;;;15.35;;
24157;SDS011;12316;50.904;4.200;2024-03-08T12:51:08;20.77;;;14.52;;
24157;SDS011;12316;50.904;4.200;2024-03-08T12:53:34;21.17;;;15.02;;
24157;SDS011;12316;50.904;4.200;2024-03-08T12:56:00;21.08;;;15.50;;
24157;SDS011;12316;50.904;4.200;2024-03-08T12:58:25;23.77;;;15.23;;
24157;SDS011;12316;50.904;4.200;2024-03-08T13:00:51;20.00;;;14.35;;
24157;SDS011;12316;50.904;4.200;2024-03-08T13:03:18;23.00;;;14.85;;
24157;SDS011;12316;50.904;4.200;2024-03-08T13:05:44;21.83;;;15.02;;
24157;SDS011;12316;50.904;4.200;2024-03-08T13:08:10;22.80;;;14.48;;
24157;SDS011;12316;50.904;4.200;2024-03-08T13:10:39;27.13;;;15.02;;
24157;SDS011;12316;50.904;4.200;2024-03-08T13:13:05;19.83;;;14.43;;
24157;SDS011;12316;50.904;4.200;2024-03-08T13:15:31;19.27;;;13.57;;
24157;SDS011;12316;50.904;4.200;2024-03-08T13:17:58;19.33;;;14.00;;
24157;SDS011;12316;50.904;4.200;2024-03-08T13:20:25;23.25;;;14.40;;
24157;SDS011;12316;50.904;4.200;2024-03-08T13:22:53;18.88;;;13.95;;
24157;SDS011;12316;50.904;4.200;2024-03-08T13:25:20;19.05;;;13.85;;
24157;SDS011;12316;50.904;4.200;2024-03-08T13:27:46;21.13;;;14.10;;
24157;SDS011;12316;50.904;4.200;2024-03-08T13:30:12;21.33;;;14.23;;
24157;SDS011;12316;50.904;4.200;2024-03-08T13:32:39;18.92;;;13.45;;
24157;SDS011;12316;50.904;4.200;2024-03-08T13:35:08;20.73;;;13.38;;
24157;SDS011;12316;50.904;4.200;2024-03-08T13:37:38;21.30;;;13.68;;
24157;SDS011;12316;50.904;4.200;2024-03-08T13:40:05;19.52;;;12.82;;
24157;SDS011;12316;50.904;4.200;2024-03-08T13:42:35;18.00;;;13.50;;
24157;SDS011;12316;50.904;4.200;2024-03-08T13:45:11;18.67;;;13.52;;
24157;SDS011;12316;50.904;4.200;2024-03-08T13:47:36;14.63;;;10.10;;
24157;SDS011;12316;50.904;4.200;2024-03-08T13:50:05;20.00;;;13.85;;
24157;SDS011;12316;50.904;4.200;2024-03-08T13:52:33;19.67;;;13.48;;
24157;SDS011;12316;50.904;4.200;2024-03-08T13:55:00;19.95;;;13.65;;
24157;SDS011;12316;50.904;4.200;2024-03-08T13:57:26;21.17;;;14.02;;
24157;SDS011;12316;50.904;4.200;2024-03-08T13:59:52;19.10;;;13.98;;
24157;SDS011;12316;50.904;4.200;2024-03-08T14:02:18;20.80;;;13.68;;
24157;SDS011;12316;50.904;4.200;2024-03-08T14:04:44;18.85;;;13.38;;
24157;SDS011;12316;50.904;4.200;2024-03-08T14:07:10;22.38;;;13.88;;
24157;SDS011;12316;50.904;4.200;2024-03-08T14:09:36;20.02;;;14.02;;
24157;SDS011;12316;50.904;4.200;2024-03-08T14:12:09;19.38;;;12.70;;
24157;SDS011;12316;50.904;4.200;2024-03-08T14:14:34;20.92;;;13.38;;
24157;SDS011;12316;50.904;4.200;2024-03-08T14:17:03;21.75;;;13.85;;
24157;SDS011;12316;50.904;4.200;2024-03-08T14:19:32;19.33;;;14.30;;
24157;SDS011;12316;50.904;4.200;2024-03-08T14:21:58;20.67;;;14.07;;
24157;SDS011;12316;50.904;4.200;2024-03-08T14:24:24;21.67;;;14.65;;
24157;SDS011;12316;50.904;4.200;2024-03-08T14:26:50;20.10;;;13.63;;
24157;SDS011;12316;50.904;4.200;2024-03-08T14:29:16;18.25;;;13.13;;
24157;SDS011;12316;50.904;4.200;2024-03-08T14:31:43;23.13;;;13.45;;
24157;SDS011;12316;50.904;4.200;2024-03-08T14:34:10;23.10;;;13.10;;
24157;SDS011;12316;50.904;4.200;2024-03-08T14:36:36;18.35;;;13.65;;
24157;SDS011;12316;50.904;4.200;2024-03-08T14:39:04;23.08;;;14.20;;
24157;SDS011;12316;50.904;4.200;2024-03-08T14:41:29;19.48;;;13.75;;
24157;SDS011;12316;50.904;4.200;2024-03-08T14:43:56;19.50;;;13.25;;